sensor_id;sensor_type;location;lat;lon;timestamp;temperature;humidity
44695;DHT22;32845;59.422;17.930;2023-04-28T00:02:36;3.80;99.90
44695;DHT22;32845;59.422;17.930;2023-04-28T00:07:07;3.70;99.90
44695;DHT22;32845;59.422;17.930;2023-04-28T00:11:37;3.70;99.90
44695;DHT22;32845;59.422;17.930;2023-04-28T00:16:08;3.70;99.90
44695;DHT22;32845;59.422;17.930;2023-04-28T00:20:38;3.60;99.90
44695;DHT22;32845;59.422;17.930;2023-04-28T00:25:09;3.70;99.90
44695;DHT22;32845;59.422;17.930;2023-04-28T00:29:40;3.60;99.90
44695;DHT22;32845;59.422;17.930;2023-04-28T00:34:10;3.60;99.90
44695;DHT22;32845;59.422;17.930;2023-04-28T00:38:43;3.60;99.90
44695;DHT22;32845;59.422;17.930;2023-04-28T00:43:14;3.50;99.90
44695;DHT22;32845;59.422;17.930;2023-04-28T00:47:44;3.40;99.90
44695;DHT22;32845;59.422;17.930;2023-04-28T00:52:15;3.40;99.90
44695;DHT22;32845;59.422;17.930;2023-04-28T00:56:46;3.30;99.90
44695;DHT22;32845;59.422;17.930;2023-04-28T01:01:17;3.30;99.90
44695;DHT22;32845;59.422;17.930;2023-04-28T01:05:48;3.20;99.90
44695;DHT22;32845;59.422;17.930;2023-04-28T01:10:19;3.20;99.90
44695;DHT22;32845;59.422;17.930;2023-04-28T01:14:50;3.10;99.90
44695;DHT22;32845;59.422;17.930;2023-04-28T01:19:21;3.10;99.90
44695;DHT22;32845;59.422;17.930;2023-04-28T01:23:52;3.00;99.90
44695;DHT22;32845;59.422;17.930;2023-04-28T01:28:23;3.00;99.90
44695;DHT22;32845;59.422;17.930;2023-04-28T01:32:53;2.90;99.90
44695;DHT22;32845;59.422;17.930;2023-04-28T01:37:24;2.70;99.90
44695;DHT22;32845;59.422;17.930;2023-04-28T01:41:55;2.60;99.90
44695;DHT22;32845;59.422;17.930;2023-04-28T01:46:25;2.50;99.90
44695;DHT22;32845;59.422;17.930;2023-04-28T01:50:56;2.50;99.90
44695;DHT22;32845;59.422;17.930;2023-04-28T01:55:27;2.50;99.90
44695;DHT22;32845;59.422;17.930;2023-04-28T01:59:57;2.40;99.90
44695;DHT22;32845;59.422;17.930;2023-04-28T02:04:29;2.40;99.90
44695;DHT22;32845;59.422;17.930;2023-04-28T02:09:00;2.30;99.90
44695;DHT22;32845;59.422;17.930;2023-04-28T02:13:30;2.20;99.90
44695;DHT22;32845;59.422;17.930;2023-04-28T02:18:01;2.20;99.90
44695;DHT22;32845;59.422;17.930;2023-04-28T02:22:31;2.10;99.90
44695;DHT22;32845;59.422;17.930;2023-04-28T02:27:06;2.10;99.90
44695;DHT22;32845;59.422;17.930;2023-04-28T02:31:36;2.00;99.90
44695;DHT22;32845;59.422;17.930;2023-04-28T02:36:07;1.90;99.90
44695;DHT22;32845;59.422;17.930;2023-04-28T02:40:38;1.90;99.90
44695;DHT22;32845;59.422;17.930;2023-04-28T02:45:09;1.90;99.90
44695;DHT22;32845;59.422;17.930;2023-04-28T02:49:40;2.00;99.90
44695;DHT22;32845;59.422;17.930;2023-04-28T02:54:10;2.00;99.90
44695;DHT22;32845;59.422;17.930;2023-04-28T02:58:41;2.10;99.90
44695;DHT22;32845;59.422;17.930;2023-04-28T03:03:11;2.20;99.90
44695;DHT22;32845;59.422;17.930;2023-04-28T03:07:42;2.30;99.90
44695;DHT22;32845;59.422;17.930;2023-04-28T03:12:13;2.40;99.90
44695;DHT22;32845;59.422;17.930;2023-04-28T03:16:43;2.50;99.90
44695;DHT22;32845;59.422;17.930;2023-04-28T03:21:14;2.60;99.90
44695;DHT22;32845;59.422;17.930;2023-04-28T03:25:44;2.60;99.90
44695;DHT22;32845;59.422;17.930;2023-04-28T03:30:15;2.70;99.90
44695;DHT22;32845;59.422;17.930;2023-04-28T03:34:46;2.80;99.90
44695;DHT22;32845;59.422;17.930;2023-04-28T03:39:16;2.90;99.90
44695;DHT22;32845;59.422;17.930;2023-04-28T03:43:47;3.00;99.90
44695;DHT22;32845;59.422;17.930;2023-04-28T03:48:17;3.10;99.90
44695;DHT22;32845;59.422;17.930;2023-04-28T03:52:48;3.10;99.90
44695;DHT22;32845;59.422;17.930;2023-04-28T03:57:18;3.20;99.90
44695;DHT22;32845;59.422;17.930;2023-04-28T04:01:49;3.30;99.90
44695;DHT22;32845;59.422;17.930;2023-04-28T04:06:20;3.30;99.90
44695;DHT22;32845;59.422;17.930;2023-04-28T04:10:51;3.40;99.90
44695;DHT22;32845;59.422;17.930;2023-04-28T04:15:24;3.50;99.90
44695;DHT22;32845;59.422;17.930;2023-04-28T04:19:54;3.50;99.90
44695;DHT22;32845;59.422;17.930;2023-04-28T04:24:25;3.50;99.90
44695;DHT22;32845;59.422;17.930;2023-04-28T04:28:56;3.60;99.90
44695;DHT22;32845;59.422;17.930;2023-04-28T04:33:26;3.60;99.90
44695;DHT22;32845;59.422;17.930;2023-04-28T04:37:57;3.70;99.90
44695;DHT22;32845;59.422;17.930;2023-04-28T04:42:28;3.70;99.90
44695;DHT22;32845;59.422;17.930;2023-04-28T04:46:59;3.70;99.90
44695;DHT22;32845;59.422;17.930;2023-04-28T04:51:29;3.80;99.90
44695;DHT22;32845;59.422;17.930;2023-04-28T04:56:00;3.80;99.90
44695;DHT22;32845;59.422;17.930;2023-04-28T05:00:30;3.80;99.90
44695;DHT22;32845;59.422;17.930;2023-04-28T05:05:01;3.80;99.90
44695;DHT22;32845;59.422;17.930;2023-04-28T05:09:32;3.80;99.90
44695;DHT22;32845;59.422;17.930;2023-04-28T05:14:03;3.90;99.90
44695;DHT22;32845;59.422;17.930;2023-04-28T05:18:33;3.80;99.90
44695;DHT22;32845;59.422;17.930;2023-04-28T05:23:05;3.90;99.90
44695;DHT22;32845;59.422;17.930;2023-04-28T05:27:36;3.80;99.90
44695;DHT22;32845;59.422;17.930;2023-04-28T05:32:10;3.90;99.90
44695;DHT22;32845;59.422;17.930;2023-04-28T05:36:40;3.90;99.90
44695;DHT22;32845;59.422;17.930;2023-04-28T05:41:11;3.80;99.90
44695;DHT22;32845;59.422;17.930;2023-04-28T05:45:42;3.80;99.90
44695;DHT22;32845;59.422;17.930;2023-04-28T05:50:13;3.80;99.90
44695;DHT22;32845;59.422;17.930;2023-04-28T05:54:43;3.80;99.90
44695;DHT22;32845;59.422;17.930;2023-04-28T05:59:14;3.90;99.90
44695;DHT22;32845;59.422;17.930;2023-04-28T06:03:44;3.90;99.90
44695;DHT22;32845;59.422;17.930;2023-04-28T06:08:15;3.90;99.90
44695;DHT22;32845;59.422;17.930;2023-04-28T06:12:46;3.90;99.90
44695;DHT22;32845;59.422;17.930;2023-04-28T06:17:16;3.90;99.90
44695;DHT22;32845;59.422;17.930;2023-04-28T06:21:47;4.00;99.90
44695;DHT22;32845;59.422;17.930;2023-04-28T06:26:21;4.10;99.90
44695;DHT22;32845;59.422;17.930;2023-04-28T06:30:51;4.20;99.90
44695;DHT22;32845;59.422;17.930;2023-04-28T06:35:22;4.30;99.90
44695;DHT22;32845;59.422;17.930;2023-04-28T06:39:53;4.40;99.90
44695;DHT22;32845;59.422;17.930;2023-04-28T06:44:23;4.40;99.90
44695;DHT22;32845;59.422;17.930;2023-04-28T06:48:54;4.40;99.90
44695;DHT22;32845;59.422;17.930;2023-04-28T06:53:25;4.50;99.90
44695;DHT22;32845;59.422;17.930;2023-04-28T06:57:55;4.50;99.90
44695;DHT22;32845;59.422;17.930;2023-04-28T07:02:26;4.50;99.90
44695;DHT22;32845;59.422;17.930;2023-04-28T07:06:56;4.60;99.90
44695;DHT22;32845;59.422;17.930;2023-04-28T07:11:27;4.60;99.90
44695;DHT22;32845;59.422;17.930;2023-04-28T07:15:58;4.60;99.90
44695;DHT22;32845;59.422;17.930;2023-04-28T07:20:28;4.60;99.90
44695;DHT22;32845;59.422;17.930;2023-04-28T07:24:59;4.70;99.90
44695;DHT22;32845;59.422;17.930;2023-04-28T07:29:30;4.80;99.90
44695;DHT22;32845;59.422;17.930;2023-04-28T07:34:03;4.90;99.90
44695;DHT22;32845;59.422;17.930;2023-04-28T07:38:34;5.00;99.90
44695;DHT22;32845;59.422;17.930;2023-04-28T07:43:05;5.00;99.90
44695;DHT22;32845;59.422;17.930;2023-04-28T07:47:35;5.00;99.90
44695;DHT22;32845;59.422;17.930;2023-04-28T07:52:06;5.10;99.90
44695;DHT22;32845;59.422;17.930;2023-04-28T07:56:37;5.20;99.90
44695;DHT22;32845;59.422;17.930;2023-04-28T08:01:08;5.20;99.90
44695;DHT22;32845;59.422;17.930;2023-04-28T08:05:38;5.30;99.90
44695;DHT22;32845;59.422;17.930;2023-04-28T08:10:09;5.40;99.90
44695;DHT22;32845;59.422;17.930;2023-04-28T08:14:41;5.50;99.90
44695;DHT22;32845;59.422;17.930;2023-04-28T08:19:11;5.60;99.90
44695;DHT22;32845;59.422;17.930;2023-04-28T08:23:43;5.70;99.90
44695;DHT22;32845;59.422;17.930;2023-04-28T08:28:13;5.70;99.90
44695;DHT22;32845;59.422;17.930;2023-04-28T08:32:44;5.90;99.90
44695;DHT22;32845;59.422;17.930;2023-04-28T08:37:15;6.10;99.90
44695;DHT22;32845;59.422;17.930;2023-04-28T08:41:46;6.20;99.90
44695;DHT22;32845;59.422;17.930;2023-04-28T08:46:17;6.30;99.90
44695;DHT22;32845;59.422;17.930;2023-04-28T08:50:52;6.30;99.90
44695;DHT22;32845;59.422;17.930;2023-04-28T08:55:23;6.30;99.90
44695;DHT22;32845;59.422;17.930;2023-04-28T08:59:55;6.50;99.90
44695;DHT22;32845;59.422;17.930;2023-04-28T09:04:26;6.60;99.90
44695;DHT22;32845;59.422;17.930;2023-04-28T09:09:17;6.70;99.90
44695;DHT22;32845;59.422;17.930;2023-04-28T09:13:47;6.70;99.90
44695;DHT22;32845;59.422;17.930;2023-04-28T09:18:18;6.80;99.90
44695;DHT22;32845;59.422;17.930;2023-04-28T09:22:50;6.90;99.90
44695;DHT22;32845;59.422;17.930;2023-04-28T09:27:26;6.90;99.90
44695;DHT22;32845;59.422;17.930;2023-04-28T09:32:14;7.00;99.90
44695;DHT22;32845;59.422;17.930;2023-04-28T09:36:44;7.10;99.90
44695;DHT22;32845;59.422;17.930;2023-04-28T09:41:15;7.10;99.90
44695;DHT22;32845;59.422;17.930;2023-04-28T09:45:45;7.10;99.90
44695;DHT22;32845;59.422;17.930;2023-04-28T09:50:16;7.20;99.90
44695;DHT22;32845;59.422;17.930;2023-04-28T09:54:49;7.30;99.90
44695;DHT22;32845;59.422;17.930;2023-04-28T09:59:20;7.50;99.90
44695;DHT22;32845;59.422;17.930;2023-04-28T10:03:52;7.50;99.90
44695;DHT22;32845;59.422;17.930;2023-04-28T10:08:24;7.50;99.90
44695;DHT22;32845;59.422;17.930;2023-04-28T10:12:56;7.50;99.90
44695;DHT22;32845;59.422;17.930;2023-04-28T10:17:27;7.50;99.90
44695;DHT22;32845;59.422;17.930;2023-04-28T10:27:04;7.80;99.90
44695;DHT22;32845;59.422;17.930;2023-04-28T10:31:35;8.20;99.90
44695;DHT22;32845;59.422;17.930;2023-04-28T10:36:06;8.40;99.90
44695;DHT22;32845;59.422;17.930;2023-04-28T10:40:48;8.60;99.90
44695;DHT22;32845;59.422;17.930;2023-04-28T10:45:57;8.80;99.90
44695;DHT22;32845;59.422;17.930;2023-04-28T10:50:30;9.00;99.90
44695;DHT22;32845;59.422;17.930;2023-04-28T11:00:25;9.60;99.90
44695;DHT22;32845;59.422;17.930;2023-04-28T11:05:12;9.80;99.90
44695;DHT22;32845;59.422;17.930;2023-04-28T11:23:27;10.40;99.90
44695;DHT22;32845;59.422;17.930;2023-04-28T11:28:04;10.70;99.90
44695;DHT22;32845;59.422;17.930;2023-04-28T11:32:37;10.90;99.90
44695;DHT22;32845;59.422;17.930;2023-04-28T11:37:14;10.90;99.90
44695;DHT22;32845;59.422;17.930;2023-04-28T11:41:45;10.80;99.90
44695;DHT22;32845;59.422;17.930;2023-04-28T11:46:20;10.90;99.90
44695;DHT22;32845;59.422;17.930;2023-04-28T11:50:51;11.20;99.90
44695;DHT22;32845;59.422;17.930;2023-04-28T11:55:22;11.30;99.90
44695;DHT22;32845;59.422;17.930;2023-04-28T11:59:52;11.30;99.90
44695;DHT22;32845;59.422;17.930;2023-04-28T12:04:37;11.00;99.90
44695;DHT22;32845;59.422;17.930;2023-04-28T12:09:15;10.60;99.70
44695;DHT22;32845;59.422;17.930;2023-04-28T12:14:02;10.70;99.90
44695;DHT22;32845;59.422;17.930;2023-04-28T12:18:34;12.00;99.90
44695;DHT22;32845;59.422;17.930;2023-04-28T12:23:05;13.60;99.90
44695;DHT22;32845;59.422;17.930;2023-04-28T12:27:38;15.00;97.40
44695;DHT22;32845;59.422;17.930;2023-04-28T12:32:10;15.90;94.90
44695;DHT22;32845;59.422;17.930;2023-04-28T12:36:41;16.30;92.60
44695;DHT22;32845;59.422;17.930;2023-04-28T12:41:15;16.10;90.80
44695;DHT22;32845;59.422;17.930;2023-04-28T12:45:46;15.50;90.60
44695;DHT22;32845;59.422;17.930;2023-04-28T12:50:17;15.10;89.90
44695;DHT22;32845;59.422;17.930;2023-04-28T12:54:47;14.50;87.20
44695;DHT22;32845;59.422;17.930;2023-04-28T12:59:18;13.90;91.40
44695;DHT22;32845;59.422;17.930;2023-04-28T13:03:49;13.30;90.50
44695;DHT22;32845;59.422;17.930;2023-04-28T13:08:20;13.10;91.90
44695;DHT22;32845;59.422;17.930;2023-04-28T13:12:51;13.40;92.50
44695;DHT22;32845;59.422;17.930;2023-04-28T13:17:21;13.60;92.50
44695;DHT22;32845;59.422;17.930;2023-04-28T13:21:52;14.10;92.70
44695;DHT22;32845;59.422;17.930;2023-04-28T13:26:23;14.30;91.30
44695;DHT22;32845;59.422;17.930;2023-04-28T13:30:54;14.00;90.70
44695;DHT22;32845;59.422;17.930;2023-04-28T13:35:24;13.60;91.40
44695;DHT22;32845;59.422;17.930;2023-04-28T13:39:55;13.20;92.90
44695;DHT22;32845;59.422;17.930;2023-04-28T13:44:27;12.90;93.60
44695;DHT22;32845;59.422;17.930;2023-04-28T13:48:58;12.50;94.20
44695;DHT22;32845;59.422;17.930;2023-04-28T13:53:29;12.10;94.40
44695;DHT22;32845;59.422;17.930;2023-04-28T13:57:59;11.60;95.50
44695;DHT22;32845;59.422;17.930;2023-04-28T14:02:33;11.10;97.40
44695;DHT22;32845;59.422;17.930;2023-04-28T14:07:04;10.70;99.70
44695;DHT22;32845;59.422;17.930;2023-04-28T14:11:35;10.40;99.90
44695;DHT22;32845;59.422;17.930;2023-04-28T14:16:06;10.10;99.90
44695;DHT22;32845;59.422;17.930;2023-04-28T14:20:36;9.90;99.90
44695;DHT22;32845;59.422;17.930;2023-04-28T14:25:07;9.70;99.90
44695;DHT22;32845;59.422;17.930;2023-04-28T14:29:38;9.80;99.90
44695;DHT22;32845;59.422;17.930;2023-04-28T14:34:09;9.90;99.90
44695;DHT22;32845;59.422;17.930;2023-04-28T14:38:40;10.00;99.90
44695;DHT22;32845;59.422;17.930;2023-04-28T14:43:10;10.10;99.90
44695;DHT22;32845;59.422;17.930;2023-04-28T14:47:41;10.10;99.90
44695;DHT22;32845;59.422;17.930;2023-04-28T14:52:12;10.20;99.90
44695;DHT22;32845;59.422;17.930;2023-04-28T14:56:42;10.20;99.90
44695;DHT22;32845;59.422;17.930;2023-04-28T15:01:13;10.30;99.90
44695;DHT22;32845;59.422;17.930;2023-04-28T15:05:44;10.20;99.90
44695;DHT22;32845;59.422;17.930;2023-04-28T15:10:15;10.20;99.90
44695;DHT22;32845;59.422;17.930;2023-04-28T15:14:45;10.10;99.90
44695;DHT22;32845;59.422;17.930;2023-04-28T15:19:16;10.10;99.90
44695;DHT22;32845;59.422;17.930;2023-04-28T15:23:47;10.00;99.90
44695;DHT22;32845;59.422;17.930;2023-04-28T15:28:18;9.90;99.90
44695;DHT22;32845;59.422;17.930;2023-04-28T15:32:49;9.70;99.90
44695;DHT22;32845;59.422;17.930;2023-04-28T15:37:41;9.70;99.90
44695;DHT22;32845;59.422;17.930;2023-04-28T15:42:12;9.70;99.90
44695;DHT22;32845;59.422;17.930;2023-04-28T15:46:43;9.70;99.90
44695;DHT22;32845;59.422;17.930;2023-04-28T15:51:14;9.60;99.90
44695;DHT22;32845;59.422;17.930;2023-04-28T15:55:44;9.70;99.90
44695;DHT22;32845;59.422;17.930;2023-04-28T16:00:15;9.80;99.90
44695;DHT22;32845;59.422;17.930;2023-04-28T16:04:46;9.90;99.90
44695;DHT22;32845;59.422;17.930;2023-04-28T16:09:17;10.00;99.90
44695;DHT22;32845;59.422;17.930;2023-04-28T16:13:47;10.00;99.90
44695;DHT22;32845;59.422;17.930;2023-04-28T16:18:19;10.00;99.90
44695;DHT22;32845;59.422;17.930;2023-04-28T16:22:50;10.00;99.90
44695;DHT22;32845;59.422;17.930;2023-04-28T16:27:20;10.00;99.90
44695;DHT22;32845;59.422;17.930;2023-04-28T16:31:51;10.00;99.90
44695;DHT22;32845;59.422;17.930;2023-04-28T16:36:21;9.90;99.90
44695;DHT22;32845;59.422;17.930;2023-04-28T16:40:52;9.90;99.90
44695;DHT22;32845;59.422;17.930;2023-04-28T16:45:22;9.90;99.90
44695;DHT22;32845;59.422;17.930;2023-04-28T16:49:53;9.90;99.90
44695;DHT22;32845;59.422;17.930;2023-04-28T16:54:24;9.90;99.90
44695;DHT22;32845;59.422;17.930;2023-04-28T16:58:57;9.90;99.90
44695;DHT22;32845;59.422;17.930;2023-04-28T17:03:28;9.90;99.90
44695;DHT22;32845;59.422;17.930;2023-04-28T17:07:58;9.80;99.90
44695;DHT22;32845;59.422;17.930;2023-04-28T17:12:29;9.70;99.90
44695;DHT22;32845;59.422;17.930;2023-04-28T17:17:00;9.60;99.90
44695;DHT22;32845;59.422;17.930;2023-04-28T17:21:31;9.50;99.90
44695;DHT22;32845;59.422;17.930;2023-04-28T17:26:03;9.40;99.90
44695;DHT22;32845;59.422;17.930;2023-04-28T17:30:34;9.20;99.90
44695;DHT22;32845;59.422;17.930;2023-04-28T17:35:06;9.00;99.90
44695;DHT22;32845;59.422;17.930;2023-04-28T17:39:37;8.80;99.90
44695;DHT22;32845;59.422;17.930;2023-04-28T17:44:08;8.60;99.90
44695;DHT22;32845;59.422;17.930;2023-04-28T17:48:38;8.50;99.90
44695;DHT22;32845;59.422;17.930;2023-04-28T17:53:09;8.30;99.90
44695;DHT22;32845;59.422;17.930;2023-04-28T17:57:39;8.20;99.90
44695;DHT22;32845;59.422;17.930;2023-04-28T18:02:10;8.00;99.90
44695;DHT22;32845;59.422;17.930;2023-04-28T18:06:41;7.90;99.90
44695;DHT22;32845;59.422;17.930;2023-04-28T18:11:12;7.70;99.90
44695;DHT22;32845;59.422;17.930;2023-04-28T18:15:43;7.60;99.90
44695;DHT22;32845;59.422;17.930;2023-04-28T18:20:15;7.40;99.90
44695;DHT22;32845;59.422;17.930;2023-04-28T18:24:46;7.30;99.90
44695;DHT22;32845;59.422;17.930;2023-04-28T18:29:17;7.20;99.90
44695;DHT22;32845;59.422;17.930;2023-04-28T18:33:51;7.00;99.90
44695;DHT22;32845;59.422;17.930;2023-04-28T18:38:21;6.90;99.90
44695;DHT22;32845;59.422;17.930;2023-04-28T18:42:53;6.70;99.90
44695;DHT22;32845;59.422;17.930;2023-04-28T18:47:24;6.60;99.90
44695;DHT22;32845;59.422;17.930;2023-04-28T18:51:58;6.40;99.90
44695;DHT22;32845;59.422;17.930;2023-04-28T18:56:32;6.30;99.90
44695;DHT22;32845;59.422;17.930;2023-04-28T19:01:04;6.20;99.90
44695;DHT22;32845;59.422;17.930;2023-04-28T19:05:34;6.10;99.90
44695;DHT22;32845;59.422;17.930;2023-04-28T19:10:05;5.90;99.90
44695;DHT22;32845;59.422;17.930;2023-04-28T19:14:37;5.80;99.90
44695;DHT22;32845;59.422;17.930;2023-04-28T19:19:07;5.70;99.90
44695;DHT22;32845;59.422;17.930;2023-04-28T19:23:38;5.50;99.90
44695;DHT22;32845;59.422;17.930;2023-04-28T19:28:10;5.50;99.90
44695;DHT22;32845;59.422;17.930;2023-04-28T19:32:41;5.40;99.90
44695;DHT22;32845;59.422;17.930;2023-04-28T19:37:11;5.30;99.90
44695;DHT22;32845;59.422;17.930;2023-04-28T19:41:43;5.20;99.90
44695;DHT22;32845;59.422;17.930;2023-04-28T19:46:14;5.00;99.90
44695;DHT22;32845;59.422;17.930;2023-04-28T19:50:45;4.80;99.90
44695;DHT22;32845;59.422;17.930;2023-04-28T19:55:16;4.70;99.90
44695;DHT22;32845;59.422;17.930;2023-04-28T19:59:49;4.60;99.90
44695;DHT22;32845;59.422;17.930;2023-04-28T20:04:20;4.60;99.90
44695;DHT22;32845;59.422;17.930;2023-04-28T20:08:51;4.50;99.90
44695;DHT22;32845;59.422;17.930;2023-04-28T20:13:22;4.40;99.90
44695;DHT22;32845;59.422;17.930;2023-04-28T20:17:52;4.20;99.90
44695;DHT22;32845;59.422;17.930;2023-04-28T20:22:23;4.10;99.90
44695;DHT22;32845;59.422;17.930;2023-04-28T20:26:53;4.00;99.90
44695;DHT22;32845;59.422;17.930;2023-04-28T20:31:24;4.00;99.90
44695;DHT22;32845;59.422;17.930;2023-04-28T20:35:55;3.90;99.90
44695;DHT22;32845;59.422;17.930;2023-04-28T20:40:25;3.80;99.90
44695;DHT22;32845;59.422;17.930;2023-04-28T20:44:56;3.70;99.90
44695;DHT22;32845;59.422;17.930;2023-04-28T20:49:28;3.70;99.90
44695;DHT22;32845;59.422;17.930;2023-04-28T20:53:59;3.60;99.90
44695;DHT22;32845;59.422;17.930;2023-04-28T20:58:29;3.50;99.90
44695;DHT22;32845;59.422;17.930;2023-04-28T21:03:00;3.50;99.90
44695;DHT22;32845;59.422;17.930;2023-04-28T21:07:33;3.40;99.90
44695;DHT22;32845;59.422;17.930;2023-04-28T21:12:04;3.30;99.90
44695;DHT22;32845;59.422;17.930;2023-04-28T21:16:35;3.30;99.90
44695;DHT22;32845;59.422;17.930;2023-04-28T21:21:06;3.20;99.90
44695;DHT22;32845;59.422;17.930;2023-04-28T21:25:36;3.20;99.90
44695;DHT22;32845;59.422;17.930;2023-04-28T21:30:07;3.20;99.90
44695;DHT22;32845;59.422;17.930;2023-04-28T21:34:39;3.10;99.90
44695;DHT22;32845;59.422;17.930;2023-04-28T21:39:09;3.10;99.90
44695;DHT22;32845;59.422;17.930;2023-04-28T21:43:40;3.00;99.90
44695;DHT22;32845;59.422;17.930;2023-04-28T21:48:10;3.00;99.90
44695;DHT22;32845;59.422;17.930;2023-04-28T21:52:41;3.00;99.90
44695;DHT22;32845;59.422;17.930;2023-04-28T21:57:12;3.00;99.90
44695;DHT22;32845;59.422;17.930;2023-04-28T22:01:42;3.00;99.90
44695;DHT22;32845;59.422;17.930;2023-04-28T22:06:13;2.90;99.90
44695;DHT22;32845;59.422;17.930;2023-04-28T22:10:43;2.90;99.90
44695;DHT22;32845;59.422;17.930;2023-04-28T22:15:14;2.90;99.90
44695;DHT22;32845;59.422;17.930;2023-04-28T22:19:45;2.90;99.90
44695;DHT22;32845;59.422;17.930;2023-04-28T22:24:16;2.90;99.90
44695;DHT22;32845;59.422;17.930;2023-04-28T22:28:46;2.90;99.90
44695;DHT22;32845;59.422;17.930;2023-04-28T22:33:18;2.90;99.90
44695;DHT22;32845;59.422;17.930;2023-04-28T22:37:48;2.80;99.90
44695;DHT22;32845;59.422;17.930;2023-04-28T22:42:19;2.80;99.90
44695;DHT22;32845;59.422;17.930;2023-04-28T22:46:49;2.70;99.90
44695;DHT22;32845;59.422;17.930;2023-04-28T22:51:20;2.70;99.90
44695;DHT22;32845;59.422;17.930;2023-04-28T22:55:51;2.60;99.90
44695;DHT22;32845;59.422;17.930;2023-04-28T23:00:22;2.60;99.90
44695;DHT22;32845;59.422;17.930;2023-04-28T23:04:53;2.60;99.90
44695;DHT22;32845;59.422;17.930;2023-04-28T23:09:23;2.60;99.90
44695;DHT22;32845;59.422;17.930;2023-04-28T23:13:54;2.60;99.90
44695;DHT22;32845;59.422;17.930;2023-04-28T23:18:24;2.60;99.90
44695;DHT22;32845;59.422;17.930;2023-04-28T23:22:55;2.60;99.90
44695;DHT22;32845;59.422;17.930;2023-04-28T23:27:27;2.50;99.90
44695;DHT22;32845;59.422;17.930;2023-04-28T23:31:58;2.50;99.90
44695;DHT22;32845;59.422;17.930;2023-04-28T23:36:29;2.40;99.90
44695;DHT22;32845;59.422;17.930;2023-04-28T23:40:59;2.30;99.90
44695;DHT22;32845;59.422;17.930;2023-04-28T23:45:30;2.20;99.90
44695;DHT22;32845;59.422;17.930;2023-04-28T23:50:00;2.20;99.90
44695;DHT22;32845;59.422;17.930;2023-04-28T23:54:31;2.10;99.90
44695;DHT22;32845;59.422;17.930;2023-04-28T23:59:02;2.00;99.90
